Terminal Aerodrome Forecast
Issued by NWS

Home | Current Version | Previous Version | Text Only | Print | Product List | Glossary On
Versions: 1 2 3 4 5 6 7 8 9 10 11 12 13 14 15 16 17 18 19 20 21 22 23 24 25 26 27 28 29 30 31 32 33 34 35 36 37 38 39 40 41 42 43 44 45 46
267
FTUS44 KHGX 182325
TAFCXO
TAF
KCXO 182325Z 1900/1924 30004KT P6SM BKN005 OVC022
      TEMPO 1902/1904 6SM BR OVC004
     FM190400 30004KT 6SM BR VCSH OVC004
     FM190900 29004KT 4SM SHRA BR VCTS BKN004 OVC015CB
     FM191500 27004KT P6SM VCSH BKN007 BKN015
     FM191900 20006KT P6SM SCT025=

USA.gov is the U.S. government's official web portal to all federal, state and local government web resources and services.